createdAt,value
2019-05-26T00:01:14.544Z,65.98
2019-05-26T00:03:48.380Z,65.95
2019-05-26T00:06:22.099Z,66.37
2019-05-26T00:08:55.778Z,66.38
2019-05-26T00:11:29.440Z,66.62
2019-05-26T00:14:04.721Z,66.68
2019-05-26T00:16:38.907Z,67.11
2019-05-26T00:19:13.041Z,67.55
2019-05-26T00:21:46.466Z,68.10
2019-05-26T00:24:20.042Z,68.25
2019-05-26T00:26:53.488Z,68.64
2019-05-26T00:29:27.231Z,68.85
2019-05-26T00:32:00.984Z,68.86
2019-05-26T00:34:35.147Z,68.76
2019-05-26T00:37:08.892Z,69.22
2019-05-26T00:39:42.565Z,69.56
2019-05-26T00:42:16.242Z,69.14
2019-05-26T00:44:51.113Z,69.77
2019-05-26T00:47:24.824Z,70.08
2019-05-26T00:49:58.585Z,70.15
2019-05-26T00:52:33.483Z,70.03
2019-05-26T00:55:07.562Z,70.37
2019-05-26T00:57:41.241Z,70.01
2019-05-26T01:00:15.537Z,69.44
2019-05-26T01:02:49.721Z,69.98
2019-05-26T01:05:23.539Z,70.04
2019-05-26T01:08:06.348Z,69.77
2019-05-26T01:10:33.979Z,70.19
2019-05-26T01:13:09.828Z,70.13
2019-05-26T01:15:44.905Z,69.86
2019-05-26T01:18:19.962Z,70.08
2019-05-26T01:20:53.772Z,70.08
2019-05-26T01:23:27.468Z,70.12
2019-05-26T01:26:01.210Z,70.46
2019-05-26T01:28:34.824Z,70.51
2019-05-26T01:31:10.127Z,70.47
2019-05-26T01:33:44.150Z,70.33
2019-05-26T01:36:19.115Z,69.89
2019-05-26T01:38:55.342Z,69.90
2019-05-26T01:41:29.040Z,70.00
2019-05-26T01:44:03.056Z,69.93
2019-05-26T01:46:37.866Z,69.90
2019-05-26T01:49:11.321Z,69.83
2019-05-26T01:51:45.118Z,69.76
2019-05-26T01:54:18.685Z,69.65
2019-05-26T01:56:52.502Z,69.68
2019-05-26T01:59:26.112Z,69.65
2019-05-26T02:02:00.390Z,69.90
2019-05-26T02:04:34.074Z,70.00
2019-05-26T02:07:07.734Z,70.07
2019-05-26T02:09:41.215Z,69.88
2019-05-26T02:12:14.697Z,70.08
2019-05-26T02:14:50.204Z,70.12
2019-05-26T02:17:23.774Z,70.09
2019-05-26T02:19:57.301Z,70.17
2019-05-26T02:22:30.823Z,70.02
2019-05-26T02:25:04.471Z,70.12
2019-05-26T02:27:37.953Z,70.19
2019-05-26T02:30:12.028Z,70.40
2019-05-26T02:32:45.551Z,70.53
2019-05-26T02:35:19.417Z,70.80
2019-05-26T02:37:52.909Z,70.79
2019-05-26T02:40:28.028Z,70.97
2019-05-26T02:43:01.530Z,70.90
2019-05-26T02:45:35.156Z,71.11
2019-05-26T02:48:08.937Z,70.96
2019-05-26T02:50:42.576Z,71.02
2019-05-26T02:53:16.246Z,70.72
2019-05-26T02:55:50.009Z,70.99
2019-05-26T02:58:24.056Z,71.21
2019-05-26T03:00:57.675Z,70.80
2019-05-26T03:03:31.459Z,70.66
2019-05-26T03:06:06.683Z,70.56
2019-05-26T03:08:41.246Z,71.04
2019-05-26T03:11:16.150Z,71.13
2019-05-26T03:13:51.649Z,71.12
2019-05-26T03:16:25.151Z,71.26
2019-05-26T03:19:01.067Z,71.20
2019-05-26T03:21:36.980Z,71.22
2019-05-26T03:24:10.908Z,71.09
2019-05-26T03:26:44.503Z,71.17
2019-05-26T03:29:18.095Z,70.88
2019-05-26T03:31:51.645Z,70.85
2019-05-26T03:34:25.455Z,71.14
2019-05-26T03:36:59.189Z,71.32
2019-05-26T03:39:44.192Z,71.60
2019-05-26T03:42:08.113Z,71.16
2019-05-26T03:44:41.659Z,70.92
2019-05-26T03:47:16.836Z,71.03
2019-05-26T03:49:50.407Z,70.68
2019-05-26T03:52:24.329Z,70.69
2019-05-26T03:54:57.840Z,70.69
2019-05-26T03:57:31.331Z,70.64
2019-05-26T04:00:05.565Z,70.21
2019-05-26T04:02:39.193Z,70.16
2019-05-26T04:05:12.855Z,70.49
2019-05-26T04:07:46.362Z,70.48
2019-05-26T04:10:19.944Z,70.47
2019-05-26T04:12:53.560Z,70.46
2019-05-26T04:15:27.374Z,70.12
2019-05-26T04:18:01.159Z,69.88
2019-05-26T04:20:34.651Z,69.51
2019-05-26T04:23:08.200Z,69.56
2019-05-26T04:25:42.764Z,69.49
2019-05-26T04:28:16.226Z,69.49
2019-05-26T04:30:49.654Z,69.33
2019-05-26T04:33:23.048Z,69.00
2019-05-26T04:35:56.547Z,68.58
2019-05-26T04:38:29.957Z,68.74
2019-05-26T04:41:03.399Z,68.86
2019-05-26T04:43:36.855Z,68.85
2019-05-26T04:46:10.328Z,68.79
2019-05-26T04:48:43.862Z,68.37
2019-05-26T04:51:18.459Z,68.53
2019-05-26T04:53:52.627Z,68.72
2019-05-26T04:56:26.236Z,68.44
2019-05-26T04:58:59.713Z,68.05
2019-05-26T05:01:33.296Z,68.11
2019-05-26T05:04:06.929Z,68.03
2019-05-26T05:06:42.795Z,67.61
2019-05-26T05:09:16.506Z,67.11
2019-05-26T05:11:50.436Z,66.89
2019-05-26T05:14:25.183Z,66.89
2019-05-26T05:16:58.831Z,66.34
2019-05-26T05:19:32.413Z,65.93
2019-05-26T05:22:06.135Z,66.20
2019-05-26T05:24:39.727Z,66.32
2019-05-26T05:27:13.347Z,66.18
2019-05-26T05:29:47.388Z,66.06
2019-05-26T05:32:20.997Z,64.61
2019-05-26T05:34:54.638Z,65.31
2019-05-26T05:37:28.864Z,65.64
2019-05-26T05:40:04.220Z,65.19
2019-05-26T05:42:37.702Z,65.22
2019-05-26T05:45:12.819Z,64.64
2019-05-26T05:47:48.459Z,65.47
2019-05-26T05:50:25.422Z,65.57
2019-05-26T05:52:58.941Z,65.81
2019-05-26T05:55:32.476Z,64.89
2019-05-26T05:58:06.016Z,64.46
2019-05-26T06:00:39.509Z,64.47
2019-05-26T06:03:12.961Z,64.12
2019-05-26T06:05:46.602Z,64.33
2019-05-26T06:08:20.393Z,64.21
2019-05-26T06:10:54.144Z,63.98
2019-05-26T06:13:28.909Z,64.12
2019-05-26T06:16:02.625Z,63.75
2019-05-26T06:18:36.305Z,64.26
2019-05-26T06:21:10.106Z,63.76
2019-05-26T06:23:43.794Z,63.45
2019-05-26T06:26:17.546Z,63.40
2019-05-26T06:28:52.519Z,62.65
2019-05-26T06:31:26.884Z,63.02
2019-05-26T06:34:01.587Z,62.56
2019-05-26T06:36:36.362Z,62.36
2019-05-26T06:39:10.878Z,62.10
2019-05-26T06:41:45.133Z,61.65
2019-05-26T06:44:18.983Z,60.50
2019-05-26T06:46:55.555Z,60.14
2019-05-26T06:49:29.347Z,59.57
2019-05-26T06:52:03.103Z,58.57
2019-05-26T06:54:37.060Z,57.64
2019-05-26T06:57:12.288Z,57.50
2019-05-26T06:59:46.450Z,55.40
2019-05-26T07:02:20.340Z,55.54
2019-05-26T07:04:54.172Z,53.57
2019-05-26T07:07:28.060Z,52.22
2019-05-26T07:10:01.897Z,53.84
2019-05-26T07:12:38.881Z,51.65
2019-05-26T07:15:13.706Z,51.98
2019-05-26T07:17:47.471Z,51.33
2019-05-26T07:20:25.096Z,51.19
2019-05-26T07:22:58.634Z,51.57
2019-05-26T07:25:32.416Z,50.29
2019-05-26T07:28:07.006Z,48.60
2019-05-26T07:30:44.029Z,48.20
2019-05-26T07:33:17.872Z,47.56
2019-05-26T07:35:51.443Z,48.42
2019-05-26T07:38:25.273Z,47.59
2019-05-26T07:40:59.052Z,47.70
2019-05-26T07:43:33.466Z,46.82
2019-05-26T07:46:07.274Z,46.55
2019-05-26T07:48:41.058Z,45.47
2019-05-26T07:51:16.455Z,45.64
2019-05-26T07:53:55.854Z,46.33
2019-05-26T07:56:27.488Z,45.92
2019-05-26T07:59:00.845Z,49.29
2019-05-26T08:01:36.186Z,45.55
2019-05-26T08:04:09.387Z,45.56
2019-05-26T08:06:43.000Z,44.96
2019-05-26T08:09:17.279Z,44.82
2019-05-26T08:11:50.946Z,44.12
2019-05-26T08:14:24.257Z,43.54
2019-05-26T08:16:57.500Z,43.18
2019-05-26T08:19:30.917Z,42.68
2019-05-26T08:22:04.158Z,43.25
2019-05-26T08:24:37.514Z,42.79
2019-05-26T08:27:10.827Z,42.91
2019-05-26T08:29:44.056Z,43.38
2019-05-26T08:32:17.323Z,43.07
2019-05-26T08:34:50.637Z,43.75
2019-05-26T08:37:23.893Z,42.85
2019-05-26T08:39:59.588Z,42.78
2019-05-26T08:42:44.107Z,43.18
2019-05-26T08:45:08.290Z,41.40
2019-05-26T08:47:41.434Z,41.64
2019-05-26T08:50:15.035Z,42.50
2019-05-26T08:52:48.172Z,42.09
2019-05-26T08:55:23.188Z,42.14
2019-05-26T08:57:56.426Z,42.44
2019-05-26T09:00:29.736Z,42.07
2019-05-26T09:03:02.999Z,41.90
2019-05-26T09:05:36.246Z,42.62
2019-05-26T09:08:09.481Z,41.74
2019-05-26T09:10:42.914Z,41.97
2019-05-26T09:13:16.319Z,42.07
2019-05-26T09:15:49.553Z,41.80
2019-05-26T09:18:22.901Z,42.15
2019-05-26T09:20:56.146Z,40.88
2019-05-26T09:23:29.355Z,41.35
2019-05-26T09:26:02.665Z,41.14
2019-05-26T09:28:35.974Z,41.40
2019-05-26T09:31:09.464Z,41.57
2019-05-26T09:33:42.573Z,42.03
2019-05-26T09:36:15.784Z,41.43
2019-05-26T09:38:49.033Z,41.32
2019-05-26T09:41:22.668Z,41.66
2019-05-26T09:43:56.542Z,41.09
2019-05-26T09:46:30.048Z,40.89
2019-05-26T09:49:03.973Z,40.28
2019-05-26T09:51:40.242Z,41.44
2019-05-26T09:54:14.028Z,41.40
2019-05-26T09:56:47.901Z,40.81
2019-05-26T09:59:21.664Z,40.12
2019-05-26T10:01:54.955Z,40.70
2019-05-26T10:04:28.332Z,40.88
2019-05-26T10:07:01.607Z,39.85
2019-05-26T10:09:35.108Z,39.30
2019-05-26T10:12:08.578Z,39.34
2019-05-26T10:14:42.071Z,39.78
2019-05-26T10:17:15.507Z,40.42
2019-05-26T10:19:49.054Z,40.25
2019-05-26T10:22:22.394Z,41.81
2019-05-26T10:24:55.706Z,40.07
2019-05-26T10:27:28.992Z,39.22
2019-05-26T10:30:02.325Z,39.23
2019-05-26T10:32:35.642Z,39.77
2019-05-26T10:35:09.191Z,39.06
2019-05-26T10:37:42.330Z,38.73
2019-05-26T10:40:16.198Z,39.41
2019-05-26T10:42:49.435Z,37.50
2019-05-26T10:45:23.777Z,38.77
2019-05-26T10:47:57.274Z,38.40
2019-05-26T10:50:30.499Z,36.96
2019-05-26T10:53:04.116Z,38.25
2019-05-26T10:55:38.378Z,37.37
2019-05-26T10:58:11.440Z,36.63
2019-05-26T11:00:44.684Z,37.07
2019-05-26T11:03:17.896Z,37.26
2019-05-26T11:05:51.149Z,36.75
2019-05-26T11:08:24.788Z,36.04
2019-05-26T11:10:58.225Z,36.78
2019-05-26T11:13:31.456Z,36.38
2019-05-26T11:16:04.567Z,35.66
2019-05-26T11:18:37.857Z,35.91
2019-05-26T11:21:12.534Z,37.38
2019-05-26T11:23:46.334Z,35.13
2019-05-26T11:26:19.636Z,36.76
2019-05-26T11:28:53.102Z,37.33
2019-05-26T11:31:26.817Z,37.50
2019-05-26T11:34:01.462Z,35.82
2019-05-26T11:36:34.756Z,34.43
2019-05-26T11:39:09.486Z,34.53
2019-05-26T11:41:42.871Z,36.62
2019-05-26T11:44:18.226Z,36.82
2019-05-26T11:46:51.214Z,35.85
2019-05-26T11:49:24.544Z,36.03
2019-05-26T11:51:57.896Z,36.62
2019-05-26T11:54:34.292Z,36.27
2019-05-26T11:57:06.258Z,36.20
2019-05-26T11:59:39.509Z,37.26
2019-05-26T12:02:12.780Z,36.52
2019-05-26T12:04:46.024Z,36.49
2019-05-26T12:07:19.942Z,36.27
2019-05-26T12:09:53.202Z,36.51
2019-05-26T12:12:26.565Z,35.97
2019-05-26T12:14:59.802Z,35.74
2019-05-26T12:17:33.052Z,36.71
2019-05-26T12:20:06.957Z,35.84
2019-05-26T12:22:40.764Z,35.35
2019-05-26T12:25:14.196Z,35.87
2019-05-26T12:27:47.561Z,36.00
2019-05-26T12:30:21.308Z,35.62
2019-05-26T12:32:54.696Z,35.74
2019-05-26T12:35:43.881Z,35.61
2019-05-26T12:38:20.498Z,35.80
2019-05-26T12:40:54.086Z,35.05
2019-05-26T12:43:27.971Z,36.03
2019-05-26T12:46:01.401Z,35.96
2019-05-26T12:48:34.785Z,34.37
2019-05-26T12:51:08.161Z,35.04
2019-05-26T12:53:41.439Z,36.74
2019-05-26T12:56:14.938Z,35.80
2019-05-26T12:58:48.365Z,34.53
2019-05-26T13:01:21.742Z,35.53
2019-05-26T13:03:55.651Z,34.94
2019-05-26T13:06:30.451Z,36.01
2019-05-26T13:09:03.951Z,35.70
2019-05-26T13:11:37.332Z,35.93
2019-05-26T13:14:10.814Z,35.70
2019-05-26T13:16:44.262Z,35.88
2019-05-26T13:19:17.690Z,35.33
2019-05-26T13:21:51.146Z,36.28
2019-05-26T13:24:24.392Z,34.52
2019-05-26T13:26:57.595Z,34.27
2019-05-26T13:29:32.170Z,35.47
2019-05-26T13:32:05.390Z,35.82
2019-05-26T13:34:38.872Z,35.18
2019-05-26T13:37:12.258Z,34.21
2019-05-26T13:39:45.757Z,34.11
2019-05-26T13:42:19.198Z,34.58
2019-05-26T13:44:52.734Z,34.74
2019-05-26T13:47:26.702Z,35.22
2019-05-26T13:50:00.010Z,35.22
2019-05-26T13:52:33.399Z,34.50
2019-05-26T13:55:07.587Z,35.79
2019-05-26T13:57:40.925Z,34.77
2019-05-26T14:00:16.487Z,34.78
2019-05-26T14:02:50.466Z,35.49
2019-05-26T14:05:24.115Z,35.28
2019-05-26T14:07:57.329Z,34.51
2019-05-26T14:10:36.618Z,34.27
2019-05-26T14:13:10.812Z,34.89
2019-05-26T14:15:45.052Z,34.28
2019-05-26T14:18:18.369Z,34.54
2019-05-26T14:20:51.679Z,35.33
2019-05-26T14:23:24.941Z,34.65
2019-05-26T14:25:58.308Z,35.18
2019-05-26T14:28:31.765Z,35.11
2019-05-26T14:31:06.124Z,35.80
2019-05-26T14:33:39.507Z,34.29
2019-05-26T14:36:12.826Z,34.84
2019-05-26T14:38:46.019Z,35.15
2019-05-26T14:41:19.332Z,33.72
2019-05-26T14:43:52.619Z,34.25
2019-05-26T14:46:25.849Z,34.46
2019-05-26T14:48:59.298Z,35.87
2019-05-26T14:51:32.510Z,34.37
2019-05-26T14:54:05.782Z,34.94
2019-05-26T14:56:40.212Z,34.66
2019-05-26T14:59:13.616Z,35.43
2019-05-26T15:01:46.965Z,35.08
2019-05-26T15:04:20.442Z,35.21
2019-05-26T15:06:53.527Z,36.06
2019-05-26T15:09:26.670Z,36.14
2019-05-26T15:12:01.012Z,36.24
2019-05-26T15:14:34.190Z,36.29
2019-05-26T15:17:07.371Z,36.10
2019-05-26T15:19:40.598Z,35.29
2019-05-26T15:22:13.752Z,36.40
2019-05-26T15:24:46.964Z,35.80
2019-05-26T15:27:20.208Z,35.59
2019-05-26T15:29:53.493Z,35.84
2019-05-26T15:32:26.783Z,35.63
2019-05-26T15:35:00.099Z,36.37
2019-05-26T15:37:33.363Z,36.36
2019-05-26T15:40:07.155Z,35.84
2019-05-26T15:42:40.523Z,36.24
2019-05-26T15:45:14.022Z,36.41
2019-05-26T15:47:47.288Z,35.74
2019-05-26T15:50:20.723Z,36.15
2019-05-26T15:52:54.048Z,36.52
2019-05-26T15:55:27.321Z,36.41
2019-05-26T15:58:00.686Z,36.55
2019-05-26T16:00:33.918Z,36.13
2019-05-26T16:03:07.276Z,36.03
2019-05-26T16:05:40.608Z,36.79
2019-05-26T16:08:13.897Z,37.33
2019-05-26T16:10:47.229Z,36.70
2019-05-26T16:13:20.493Z,37.09
2019-05-26T16:15:53.776Z,37.69
2019-05-26T16:18:27.052Z,37.39
2019-05-26T16:21:03.309Z,37.39
2019-05-26T16:23:35.018Z,37.14
2019-05-26T16:26:09.370Z,37.28
2019-05-26T16:28:42.623Z,38.12
2019-05-26T16:31:16.093Z,38.01
2019-05-26T16:33:49.345Z,38.38
2019-05-26T16:36:24.178Z,38.44
2019-05-26T16:38:57.595Z,38.76
2019-05-26T16:41:32.558Z,38.79
2019-05-26T16:44:05.890Z,39.45
2019-05-26T16:46:39.418Z,40.70
2019-05-26T16:49:12.590Z,41.86
2019-05-26T16:51:45.971Z,40.83
2019-05-26T16:54:19.233Z,41.06
2019-05-26T16:56:52.533Z,40.97
2019-05-26T16:59:25.724Z,40.10
2019-05-26T17:01:58.901Z,39.92
2019-05-26T17:04:33.184Z,40.21
2019-05-26T17:07:06.479Z,40.23
2019-05-26T17:09:39.732Z,40.19
2019-05-26T17:12:12.974Z,40.23
2019-05-26T17:14:46.318Z,40.04
2019-05-26T17:17:19.554Z,39.68
2019-05-26T17:19:53.222Z,39.97
2019-05-26T17:22:26.548Z,39.33
2019-05-26T17:25:00.149Z,39.68
2019-05-26T17:27:33.393Z,39.09
2019-05-26T17:30:06.993Z,39.35
2019-05-26T17:32:40.245Z,39.68
2019-05-26T17:35:13.695Z,39.87
2019-05-26T17:37:46.928Z,39.44
2019-05-26T17:40:22.982Z,39.78
2019-05-26T17:42:56.224Z,39.55
2019-05-26T17:45:29.554Z,40.05
2019-05-26T17:48:02.646Z,39.88
2019-05-26T17:50:35.973Z,39.99
2019-05-26T17:53:09.217Z,39.92
2019-05-26T17:55:42.551Z,40.47
2019-05-26T17:58:15.841Z,40.87
2019-05-26T18:00:49.178Z,41.09
2019-05-26T18:03:22.311Z,40.82
2019-05-26T18:05:55.584Z,40.95
2019-05-26T18:08:31.330Z,41.26
2019-05-26T18:11:04.584Z,41.54
2019-05-26T18:13:37.906Z,42.00
2019-05-26T18:16:11.138Z,42.14
2019-05-26T18:18:44.313Z,42.60
2019-05-26T18:21:17.534Z,42.71
2019-05-26T18:23:50.831Z,42.98
2019-05-26T18:26:24.013Z,43.37
2019-05-26T18:28:57.220Z,43.80
2019-05-26T18:31:30.482Z,43.78
2019-05-26T18:34:03.776Z,43.87
2019-05-26T18:36:37.015Z,43.92
2019-05-26T18:39:11.903Z,44.35
2019-05-26T18:41:45.260Z,44.78
2019-05-26T18:44:18.496Z,44.16
2019-05-26T18:46:53.676Z,44.35
2019-05-26T18:49:26.880Z,44.35
2019-05-26T18:52:00.963Z,44.28
2019-05-26T18:54:34.510Z,44.56
2019-05-26T18:57:07.693Z,44.35
2019-05-26T18:59:41.020Z,44.55
2019-05-26T19:02:14.250Z,44.98
2019-05-26T19:04:48.026Z,44.85
2019-05-26T19:07:32.669Z,45.07
2019-05-26T19:10:09.478Z,45.10
2019-05-26T19:12:42.804Z,45.55
2019-05-26T19:15:16.734Z,45.68
2019-05-26T19:17:49.917Z,45.67
2019-05-26T19:20:23.711Z,45.56
2019-05-26T19:23:04.753Z,45.57
2019-05-26T19:25:46.444Z,45.48
2019-05-26T19:28:22.802Z,45.63
2019-05-26T19:31:00.198Z,46.00
2019-05-26T19:33:36.995Z,46.10
2019-05-26T19:36:10.900Z,46.12
2019-05-26T19:38:45.460Z,46.34
2019-05-26T19:41:18.837Z,46.54
2019-05-26T19:43:52.079Z,46.99
2019-05-26T19:46:25.365Z,47.21
2019-05-26T19:48:58.602Z,47.38
2019-05-26T19:51:32.822Z,48.26
2019-05-26T19:54:07.192Z,48.62
2019-05-26T19:56:42.558Z,48.72
2019-05-26T19:59:19.169Z,49.01
2019-05-26T20:01:52.500Z,48.93
2019-05-26T20:04:25.860Z,49.50
2019-05-26T20:06:59.192Z,49.45
2019-05-26T20:09:32.902Z,49.96
2019-05-26T20:12:06.674Z,50.02
2019-05-26T20:14:40.399Z,50.56
2019-05-26T20:17:13.712Z,50.70
2019-05-26T20:19:46.888Z,50.67
2019-05-26T20:22:20.032Z,50.76
2019-05-26T20:24:54.186Z,50.75
2019-05-26T20:27:27.779Z,50.58
2019-05-26T20:30:01.034Z,51.10
2019-05-26T20:32:34.240Z,51.96
2019-05-26T20:35:08.024Z,51.94
2019-05-26T20:37:41.294Z,51.62
2019-05-26T20:40:14.934Z,51.77
2019-05-26T20:42:48.721Z,51.97
2019-05-26T20:45:22.896Z,52.23
2019-05-26T20:48:01.891Z,52.29
2019-05-26T20:50:36.047Z,52.22
2019-05-26T20:53:24.635Z,52.31
2019-05-26T20:55:58.769Z,52.23
2019-05-26T20:58:32.172Z,52.34
2019-05-26T21:01:05.811Z,52.68
2019-05-26T21:03:39.466Z,52.85
2019-05-26T21:06:12.768Z,52.69
2019-05-26T21:08:46.141Z,52.96
2019-05-26T21:11:19.512Z,53.40
2019-05-26T21:13:53.094Z,53.30
2019-05-26T21:16:26.809Z,53.61
2019-05-26T21:19:01.266Z,53.69
2019-05-26T21:21:34.654Z,53.70
2019-05-26T21:24:08.032Z,54.31
2019-05-26T21:26:41.462Z,55.96
2019-05-26T21:29:15.630Z,55.49
2019-05-26T21:31:57.411Z,55.02
2019-05-26T21:34:30.884Z,55.60
2019-05-26T21:37:04.956Z,55.58
2019-05-26T21:39:38.357Z,55.56
2019-05-26T21:42:15.799Z,55.50
2019-05-26T21:44:50.366Z,54.83
2019-05-26T21:47:23.621Z,54.44
2019-05-26T21:49:56.939Z,54.51
2019-05-26T21:52:32.186Z,54.30
2019-05-26T21:55:21.624Z,54.13
2019-05-26T21:57:55.262Z,54.68
2019-05-26T22:00:39.330Z,54.87
2019-05-26T22:03:12.950Z,55.19
2019-05-26T22:05:46.384Z,55.07
2019-05-26T22:08:19.823Z,55.14
2019-05-26T22:10:53.089Z,55.24
2019-05-26T22:13:26.425Z,55.07
2019-05-26T22:15:59.761Z,54.61
2019-05-26T22:18:33.161Z,54.39
2019-05-26T22:21:06.400Z,54.44
2019-05-26T22:23:39.660Z,54.24
2019-05-26T22:26:12.901Z,54.50
2019-05-26T22:28:46.628Z,54.21
2019-05-26T22:31:19.890Z,54.38
2019-05-26T22:33:53.156Z,54.37
2019-05-26T22:36:26.494Z,54.59
2019-05-26T22:38:59.785Z,54.99
2019-05-26T22:41:33.048Z,55.14
2019-05-26T22:44:06.423Z,55.14
2019-05-26T22:46:39.755Z,55.12
2019-05-26T22:49:13.110Z,55.06
2019-05-26T22:51:46.451Z,55.12
2019-05-26T22:54:19.710Z,55.16
2019-05-26T22:56:52.954Z,55.48
2019-05-26T22:59:26.324Z,55.65
2019-05-26T23:01:59.638Z,56.04
2019-05-26T23:04:33.075Z,56.19
2019-05-26T23:07:06.143Z,55.71
2019-05-26T23:09:39.306Z,55.77
2019-05-26T23:12:13.881Z,55.81
2019-05-26T23:14:48.430Z,56.07
2019-05-26T23:17:23.139Z,56.20
2019-05-26T23:19:57.535Z,56.29
2019-05-26T23:22:32.235Z,56.34
2019-05-26T23:25:07.522Z,56.28
2019-05-26T23:27:42.154Z,56.58
2019-05-26T23:30:16.875Z,56.51
2019-05-26T23:32:51.870Z,56.56
2019-05-26T23:35:26.553Z,56.89
2019-05-26T23:38:01.244Z,56.64
2019-05-26T23:40:35.071Z,56.58
2019-05-26T23:43:10.143Z,56.63
2019-05-26T23:45:43.479Z,56.87
2019-05-26T23:48:16.802Z,57.14
2019-05-26T23:50:49.980Z,57.43
2019-05-26T23:53:23.061Z,57.56
2019-05-26T23:55:56.418Z,57.81
2019-05-26T23:58:29.723Z,58.20
